Weather observations for the past three days for
Moose Lake Carlton County Airport
Imperial (Metric)
Date Time (cdt) Wind (mph) Vis. (mi.) Weather Sky Cond. Temperature (ºF) Relative Humidity Wind Chill (°F) Heat Index (°F) Pressure Precipitation (in)
Air Dwpt 6 hour altimeter (in) sea level (mb) 1 hr 3 hr 6 hr
Max. Min.
06 13:35 W 9 10.00 Overcast OVC044 42.8 24.8 49% 38 29.96 0.0
06 13:15 W 6 G 16 10.00 Overcast OVC044 42.8 24.8 49% 40 29.96 0.0
06 12:55 NW 7 10.00 Overcast BKN042 OVC048 42.8 24.8 49% 39 29.97 0.0
06 12:35 W 13 G 17 10.00 Overcast OVC042 41 24.8 53% 34 29.97 0.0
06 12:15 W 8 10.00 Overcast OVC044 42.8 23 46% 39 29.97 0.0
06 11:55 W 7 G 17 10.00 Overcast OVC044 41 23 49% 37 29.98 0.0
06 11:35 W 9 10.00 Overcast BKN042 OVC055 42.8 23 46% 38 29.98 0.0
06 11:15 NW 9 10.00 Overcast OVC042 41 23 49% 36 29.98 0.0
06 10:55 W 7 10.00 Overcast OVC042 41 23 49% 37 29.98 0.0
06 10:35 NW 8 G 16 10.00 Overcast OVC042 39.2 23 52% 34 29.98 0.0
06 10:15 W 6 10.00 Overcast OVC040 39.2 23 52% 36 29.98 0.0
06 09:55 NW 6 G 17 10.00 Overcast OVC036 37.4 23 56% 33 29.99 0.0
06 09:35 NW 8 10.00 Overcast OVC038 37.4 23 56% 32 29.99 0.0
06 09:15 NW 10 10.00 Overcast OVC038 37.4 23 56% 31 29.98 0.0
06 08:55 NW 7 10.00 Overcast OVC040 37.4 23 56% 33 29.98 0.0
06 08:35 W 5 10.00 Overcast OVC040 37.4 23 56% 34 29.98 0.0
06 08:15 NW 6 10.00 Overcast OVC038 35.6 23 60% 31 29.98 0.0
06 07:55 W 3 10.00 Overcast OVC038 35.6 23 60% 29.97 0.0
06 07:35 Calm 10.00 Overcast OVC038 35.6 24.8 65% 29.97 0.0
06 07:15 Calm 10.00 Overcast OVC038 35.6 24.8 65% 29.96 0.0
06 06:55 Calm 10.00 Overcast OVC040 33.8 26.6 75% 29.96 0.0
06 06:35 Calm 10.00 Overcast OVC040 33.8 24.8 70% 29.95 0.0
06 06:15 Calm 10.00 Overcast OVC042 33.8 24.8 70% 29.94 0.0
06 05:55 Calm 10.00 Overcast OVC042 33.8 24.8 70% 29.94 0.0
06 05:35 Calm 10.00 Overcast OVC042 33.8 23 65% 29.94 0.0
06 05:15 Calm 10.00 Overcast OVC044 33.8 23 65% 29.94 0.0
06 04:55 NW 3 10.00 Overcast OVC046 33.8 23 65% 29.94 0.0
06 04:35 Calm 10.00 Overcast OVC044 33.8 23 65% 29.94 0.0
06 04:15 NW 3 10.00 Overcast OVC046 33.8 23 65% 29.93 0.0
06 03:55 NW 5 10.00 Overcast OVC044 35.6 23 60% 32 29.93 0.0
06 03:35 NW 3 10.00 Overcast OVC044 35.6 21.2 56% 29.93 0.0
06 03:15 NW 5 10.00 Overcast OVC044 35.6 21.2 56% 32 29.92 0.0
06 02:55 NW 5 10.00 Overcast OVC042 35.6 21.2 56% 32 29.93 0.0
06 02:35 NW 7 10.00 Overcast OVC038 35.6 23 60% 31 29.93 0.0
06 02:15 NW 7 10.00 Overcast OVC038 35.6 23 60% 31 29.93 0.0
06 01:55 NW 7 10.00 Overcast OVC040 37.4 23 56% 33 29.92 0.0
06 01:35 NW 6 10.00 Overcast OVC042 37.4 23 56% 33 29.93 0.0
06 01:15 NW 5 10.00 Overcast OVC044 37.4 23 56% 34 29.92 0.0
06 00:55 N 5 10.00 Overcast OVC044 37.4 23 56% 34 29.92 0.0
06 00:35 NW 5 10.00 Overcast OVC044 37.4 23 56% 34 29.92 0.0
06 00:15 NW 3 10.00 Overcast OVC044 37.4 23 56% 29.91 0.0
05 23:55 NW 5 10.00 Overcast OVC044 37.4 23 56% 34 29.91 0.0
05 23:35 NW 3 10.00 Overcast OVC044 37.4 23 56% 29.91 0.0
05 23:15 NW 3 10.00 Overcast OVC042 37.4 23 56% 29.91 0.0
05 22:55 NW 6 10.00 Overcast OVC044 37.4 23 56% 33 29.91 0.0
05 22:35 NW 3 10.00 Overcast OVC044 37.4 23 56% 29.91 0.0
05 22:15 NW 6 10.00 Overcast OVC044 37.4 21.2 52% 33 29.91 0.0
05 21:55 NW 7 10.00 Overcast OVC044 37.4 23 56% 33 29.91 0.0
05 21:35 NW 6 10.00 Overcast OVC046 37.4 23 56% 33 29.9 0.0
05 21:15 W 7 10.00 Overcast OVC046 37.4 21.2 52% 33 29.89 0.0
05 20:55 W 7 10.00 Overcast OVC048 37.4 21.2 52% 33 29.88 0.0
05 20:35 NW 7 10.00 Overcast OVC050 37.4 21.2 52% 33 29.88 0.0
05 20:15 NW 7 10.00 Overcast OVC050 39.2 21.2 48% 35 29.87 0.0
05 19:55 NW 6 10.00 Overcast OVC060 41 21.2 45% 38 29.87 0.0
05 19:35 NW 5 10.00 Overcast OVC060 41 23 49% 38 29.86 0.0
05 19:15 W 9 10.00 Overcast OVC060 41 23 49% 36 29.86 0.0
05 18:55 NW 10 G 16 10.00 Overcast OVC050 41 23 49% 35 29.86 0.0
05 18:35 NW 6 10.00 Overcast OVC050 41 23 49% 38 29.85 0.0
05 18:15 NW 13 G 16 10.00 Overcast OVC050 42.8 23 46% 37 29.85 0.0
05 17:55 NW 10 G 18 10.00 Overcast OVC050 42.8 23 46% 38 29.84 0.0
05 17:35 NW 8 G 12 10.00 Overcast OVC050 42.8 24.8 49% 39 29.84 0.0
05 17:15 NW 12 G 18 10.00 Overcast OVC050 44.6 24.8 46% 39 29.84 0.0
05 16:55 NW 8 G 20 10.00 Overcast OVC050 44.6 24.8 46% 41 29.83 0.0
05 16:35 NW 7 G 16 10.00 Overcast OVC050 44.6 24.8 46% 41 29.83 0.0
05 16:15 W 9 10.00 Overcast OVC050 44.6 24.8 46% 40 29.83 0.0
05 15:55 NW 6 G 18 10.00 Overcast OVC050 44.6 24.8 46% 42 29.83 0.0
05 15:35 NW 8 G 17 10.00 Overcast OVC050 44.6 24.8 46% 41 29.83 0.0
05 15:15 NW 7 G 16 10.00 Overcast OVC050 44.6 24.8 46% 41 29.83 0.0
05 14:55 W 9 G 18 10.00 Overcast OVC048 44.6 24.8 46% 40 29.83 0.0
05 14:35 NW 10 10.00 Overcast OVC046 44.6 24.8 46% 40 29.83 0.0
05 14:15 NW 13 G 18 10.00 Overcast OVC046 42.8 24.8 49% 37 29.83 0.0
05 13:55 W 8 G 20 10.00 Overcast OVC048 44.6 26.6 49% 41 29.83 0.0
05 13:35 NW 5 10.00 Overcast OVC048 44.6 24.8 46% 43 29.82 0.0
05 13:15 W 6 G 17 10.00 Overcast OVC046 42.8 23 46% 40 29.82 0.0
05 12:55 W 8 G 17 10.00 Overcast OVC044 42.8 23 46% 39 29.82 0.0
05 12:35 W 8 10.00 Overcast OVC046 42.8 23 46% 39 29.82 0.0
05 12:15 W 12 G 21 10.00 Overcast OVC048 41 23 49% 35 29.81 0.0
05 11:55 NW 9 10.00 Overcast OVC046 41 23 49% 36 29.82 0.0
05 11:35 W 9 10.00 Overcast OVC046 39.2 23 52% 34 29.81 0.0
05 11:15 W 9 G 16 10.00 Overcast OVC044 41 23 49% 36 29.81 0.0
05 10:55 NW 10 G 16 10.00 Overcast OVC044 41 21.2 45% 35 29.81 0.0
05 10:35 NW 12 G 20 10.00 Overcast OVC046 39.2 21.2 48% 33 29.81 0.0
05 10:15 NW 9 10.00 Overcast BKN042 OVC049 39.2 23 52% 34 29.8 0.0
05 09:55 W 7 G 16 10.00 Overcast OVC040 37.4 23 56% 33 29.8 0.0
05 09:35 NW 10 G 17 10.00 Overcast SCT038 BKN043 OVC050 37.4 23 56% 31 29.79 0.0
05 09:15 W 10 G 16 10.00 Overcast SCT035 BKN043 OVC050 37.4 23 56% 31 29.79 0.0
05 08:55 W 7 10.00 Overcast SCT031 BKN039 OVC070 37.4 23 56% 33 29.79 0.0
05 08:35 W 6 10.00 Overcast BKN031 BKN038 OVC070 37.4 26.6 65% 33 29.78 0.0
05 08:15 NW 9 G 18 10.00 Overcast BKN031 BKN038 OVC070 35.6 24.8 65% 29 29.78 0.0
05 07:55 NW 9 G 17 10.00 Overcast SCT029 OVC070 35.6 24.8 65% 29 29.78 0.0
05 07:35 NW 8 10.00 Overcast OVC070 35.6 24.8 65% 30 29.77 0.0
05 07:15 W 9 10.00 Overcast OVC070 33.8 24.8 70% 27 29.77 0.0
05 06:55 NW 3 10.00 Mostly Cloudy BKN070 33.8 24.8 70% 29.75 0.0
05 06:35 W 5 10.00 Fair CLR 32 23 69% 28 29.75 0.0
05 06:15 NW 6 10.00 Fair CLR 32 23 69% 27 29.74 0.0
05 05:55 W 5 10.00 Fair CLR 32 23 69% 28 29.73 0.0
05 05:35 W 7 10.00 Fair CLR 32 23 69% 26 29.73 0.0
05 05:15 W 7 10.00 Fair CLR 32 24.8 75% 26 29.72 0.0
05 04:55 W 6 10.00 Partly Cloudy SCT043 32 24.8 75% 27 29.72 0.0
05 04:35 W 6 10.00 Partly Cloudy SCT043 33.8 24.8 70% 29 29.71 0.0
05 04:15 W 5 10.00 Fair CLR 33.8 24.8 70% 30 29.71 0.0
05 03:55 W 6 10.00 Fair CLR 33.8 26.6 75% 29 29.7 0.0
05 03:35 NW 7 10.00 Fair CLR 33.8 26.6 75% 28 29.69 0.0
05 03:15 NW 7 10.00 Fair CLR 33.8 26.6 75% 28 29.69 0.0
05 02:55 W 7 10.00 Fair CLR 35.6 26.6 70% 31 29.69 0.0
05 02:35 W 7 10.00 Fair CLR 35.6 26.6 70% 31 29.69 0.0
05 02:15 NW 7 10.00 Fair CLR 35.6 24.8 65% 31 29.68 0.0
05 01:55 NW 6 G 16 10.00 Fair CLR 37.4 24.8 60% 33 29.68 0.0
05 01:35 W 8 10.00 Fair CLR 37.4 24.8 60% 32 29.68 0.0
05 01:15 W 7 10.00 Fair CLR 37.4 24.8 60% 33 29.68 0.0
05 00:55 W 7 10.00 Fair CLR 37.4 24.8 60% 33 29.68 0.0
05 00:35 NW 6 10.00 Fair CLR 39.2 24.8 56% 36 29.67 0.0
05 00:15 NW 6 G 18 10.00 Partly Cloudy SCT050 39.2 24.8 56% 36 29.67 0.0
04 23:55 W 6 10.00 Partly Cloudy SCT050 39.2 26.6 61% 36 29.67 0.0
04 23:35 W 3 10.00 Fair CLR 39.2 24.8 56% 29.66 0.0
04 23:15 W 3 10.00 Partly Cloudy SCT050 SCT085 41 24.8 53% 29.66 0.0
04 22:55 W 5 10.00 Partly Cloudy SCT070 SCT085 41 24.8 53% 38 29.66 0.0
04 22:35 W 6 10.00 Mostly Cloudy BKN085 42.8 24.8 49% 40 29.66 0.0
04 22:15 NW 7 10.00 Overcast OVC085 42.8 26.6 53% 39 29.66 0.0
04 21:55 W 8 10.00 Overcast OVC085 42.8 26.6 53% 39 29.66 0.0
04 21:35 W 5 10.00 Overcast OVC085 44.6 26.6 49% 43 29.65 0.0
04 21:15 W 5 10.00 Overcast OVC085 44.6 24.8 46% 43 29.64 0.0
04 20:55 W 6 10.00 Overcast SCT070 OVC085 44.6 24.8 46% 42 29.64 0.0
04 20:35 NW 5 10.00 Overcast OVC085 44.6 24.8 46% 43 29.63 0.0
04 20:15 NW 7 G 17 10.00 Overcast OVC085 44.6 24.8 46% 41 29.62 0.0
04 19:55 NW 7 10.00 Overcast OVC075 44.6 24.8 46% 41 29.62 0.0
04 19:35 NW 8 G 18 10.00 Overcast OVC075 46.4 23 40% 43 29.62 0.0
04 19:15 NW 9 G 17 10.00 Overcast SCT065 OVC075 46.4 23 40% 42 29.61 0.0
04 18:55 NW 7 G 16 10.00 Overcast BKN065 OVC075 46.4 23 40% 43 29.61 0.0
04 18:35 W 12 G 18 10.00 Overcast OVC065 46.4 24.8 43% 42 29.61 0.0
04 18:15 W 9 G 20 10.00 Overcast SCT055 OVC065 46.4 24.8 43% 42 29.61 0.0
04 17:55 W 13 G 21 10.00 Overcast OVC055 46.4 26.6 46% 41 29.61 0.0
04 17:35 W 12 G 18 10.00 Overcast BKN050 OVC055 46.4 26.6 46% 42 29.6 0.0
04 17:15 NW 8 G 18 10.00 Overcast OVC060 46.4 28.4 50% 43 29.59 0.0
04 16:55 NW 15 G 23 10.00 Overcast OVC060 46.4 28.4 50% 41 29.58 0.0
04 16:35 W 10 G 22 10.00 Overcast SCT048 OVC060 48.2 28.4 46% 44 29.57 0.0
04 16:15 W 12 G 25 10.00 Overcast BKN050 OVC065 48.2 28.4 46% 44 29.57 0.0
04 15:55 NW 16 G 26 10.00 Overcast BKN048 OVC065 50 30.2 47% 45 29.56 0.0
04 15:35 NW 14 G 25 10.00 Overcast SCT048 OVC070 50 30.2 47% 45 29.55 0.0
04 15:15 W 15 G 24 10.00 Overcast SCT048 SCT055 OVC065 51.8 30.2 44% 29.55 0.0
04 14:55 W 14 G 28 10.00 Overcast SCT048 OVC055 51.8 32 47% 29.54 0.0
04 14:35 NW 13 G 24 10.00 Overcast OVC055 51.8 30.2 44% 29.53 0.0
04 14:15 NW 13 G 21 10.00 Overcast OVC055 51.8 30.2 44% 29.52 0.0
04 13:55 NW 13 G 31 10.00 Mostly Cloudy BKN055 51.8 30.2 44% 29.51 0.0
04 13:35 NW 20 G 31 10.00 Overcast OVC049 51.8 30.2 44% 29.51 0.0
04 13:15 W 13 G 24 10.00 Mostly Cloudy BKN049 51.8 30.2 44% 29.5 0.0
04 12:55 NW 15 G 25 10.00 Overcast OVC049 53.6 32 44% 29.49 0.0
04 12:35 NW 16 G 24 10.00 Overcast OVC050 53.6 32 44% 29.48 0.0
04 12:15 NW 13 G 28 10.00 Overcast OVC048 53.6 30.2 41% 29.48 0.0
04 11:55 W 10 G 25 10.00 Overcast OVC046 51.8 32 47% 29.47 0.0
04 11:35 W 13 G 22 10.00 Overcast BKN045 OVC050 53.6 32 44% 29.46 0.0
04 11:15 NW 18 G 24 10.00 Overcast BKN045 OVC050 51.8 32 47% 29.46 0.0
04 10:55 NW 17 G 29 10.00 Overcast OVC049 53.6 32 44% 29.44 0.0
04 10:35 W 14 G 23 10.00 Mostly Cloudy BKN047 BKN055 55.4 32 41% 29.43 0.0
04 10:15 NW 16 G 25 10.00 Overcast BKN044 OVC050 53.6 33.8 47% 29.42 0.0
04 09:55 NW 18 G 25 10.00 Mostly Cloudy BKN041 BKN050 53.6 33.8 47% 29.41 0.0
04 09:35 W 17 G 29 10.00 Mostly Cloudy SCT041 BKN050 53.6 35.6 51% 29.4 0.0
04 09:15 NW 13 G 22 10.00 Overcast BKN040 OVC048 53.6 35.6 51% 29.4 0.0
04 08:55 W 13 G 22 10.00 Overcast BKN040 OVC120 51.8 35.6 54% 29.4 0.0
04 08:35 W 15 G 22 10.00 Overcast BKN045 OVC110 51.8 35.6 54% 29.39 0.0
04 08:15 NW 15 G 21 10.00 Overcast SCT038 SCT070 OVC110 53.6 35.6 51% 29.37 0.0
04 07:55 W 12 G 16 10.00 Overcast SCT038 SCT044 OVC095 53.6 37.4 54% 29.35 0.0
04 07:35 W 12 G 20 10.00 Overcast OVC085 53.6 37.4 54% 29.35 0.0
04 07:15 W 6 10.00 Overcast SCT065 SCT075 OVC085 53.6 37.4 54% 29.35 0.0
04 06:55 NW 6 10.00 Overcast BKN065 BKN075 OVC120 53.6 37.4 54% 29.35 0.0
04 06:35 NW 7 G 16 10.00 Mostly Cloudy BKN120 53.6 37.4 54% 29.34 0.0
04 06:15 NW 6 10.00 Fair CLR 53.6 39.2 58% 29.33 0.0
04 05:55 N 15 G 22 10.00 Fair CLR 55.4 39.2 55% 29.32 0.0
04 05:35 W 13 G 22 10.00 Fair CLR 60.8 32 34% 29.28 0.0
04 05:15 SW 16 G 26 10.00 Partly Cloudy SCT120 60.8 32 34% 29.28 0.0
04 04:55 SW 10 G 16 10.00 Partly Cloudy SCT110 60.8 32 34% 29.28 0.0
04 04:35 SW 12 G 17 10.00 Partly Cloudy SCT110 59 32 36% 29.29 0.0
04 04:15 SW 9 10.00 Partly Cloudy SCT110 59 32 36% 29.3 0.0
04 03:55 S 10 G 16 10.00 Mostly Cloudy SCT050 SCT070 BKN100 59 32 36% 29.3 0.0
04 03:35 S 10 G 17 10.00 Mostly Cloudy SCT050 SCT070 BKN110 59 32 36% 29.32 0.0
04 03:15 SW 12 G 17 10.00 Partly Cloudy SCT110 59 32 36% 29.33 0.0
04 02:55 SW 12 G 16 10.00 Fair CLR 59 32 36% 29.34 0.0
04 02:35 SW 10 G 20 10.00 Fair CLR 59 32 36% 29.36 0.0
04 02:15 SW 15 G 21 10.00 Fair CLR 59 32 36% 29.37 0.0
04 01:55 SW 13 G 25 10.00 Fair CLR 59 32 36% 29.39 0.0
04 01:35 SW 12 G 20 10.00 Fair CLR 59 32 36% 29.4 0.0
04 01:15 SW 10 G 17 10.00 Fair CLR 59 32 36% 29.42 0.0
04 00:55 SW 10 G 20 10.00 Fair CLR 59 32 36% 29.43 0.0
04 00:35 SW 7 10.00 Fair CLR 59 32 36% 29.44 0.0
04 00:15 SW 10 10.00 Fair CLR 59 32 36% 29.45 0.0
03 23:55 S 10 G 17 10.00 Fair CLR 59 32 36% 29.47 0.0
03 23:35 SW 8 10.00 Fair CLR 57.2 32 39% 29.48 0.0
03 23:15 S 7 10.00 Fair CLR 55.4 32 41% 29.49 0.0
03 22:55 S 6 10.00 Fair CLR 55.4 30.2 38% 29.51 0.0
03 22:35 S 6 10.00 Fair CLR 55.4 30.2 38% 29.52 0.0
03 22:15 S 6 10.00 Fair CLR 57.2 30.2 36% 29.54 0.0
03 21:55 S 5 10.00 Fair CLR 59 30.2 34% 29.55 0.0
03 21:35 S 5 10.00 Fair CLR 57.2 30.2 36% 29.56 0.0
03 21:15 S 5 10.00 Fair CLR 59 30.2 34% 29.57 0.0
03 20:55 S 5 10.00 Fair CLR 59 30.2 34% 29.58 0.0
03 20:35 SW 6 10.00 Fair CLR 62.6 30.2 30% 29.59 0.0
03 20:15 SW 5 10.00 Fair CLR 62.6 30.2 30% 29.59 0.0
03 19:55 W 5 10.00 Fair CLR 64.4 30.2 28% 29.6 0.0
03 19:35 W 8 10.00 Fair CLR 66.2 30.2 26% 29.6 0.0
03 19:15 W 10 10.00 Fair CLR 66.2 30.2 26% 29.6 0.0
03 18:55 SW 10 G 17 10.00 Fair CLR 68 32 26% 29.6 0.0
03 18:35 W 7 G 16 10.00 Fair CLR 68 30.2 24% 29.6 0.0
03 18:15 W 6 10.00 Fair CLR 69.8 32 25% 29.62 0.0
03 17:55 NW 6 G 16 10.00 Fair CLR 69.8 32 25% 29.63 0.0
03 17:35 W 9 10.00 Fair CLR 69.8 32 25% 29.63 0.0
03 17:15 W 8 10.00 Fair CLR 69.8 32 25% 29.63 0.0
03 16:55 W 8 G 16 10.00 Fair CLR 69.8 30.2 23% 29.64 0.0
03 16:35 W 10 G 21 10.00 Fair CLR 68 32 26% 29.64 0.0
03 16:15 W 10 G 18 10.00 Fair CLR 68 32 26% 29.65 0.0
03 15:55 NW 9 G 18 10.00 Fair CLR 68 32 26% 29.65 0.0
03 15:35 NW 9 G 22 10.00 Fair CLR 68 32 26% 29.66 0.0
03 15:15 NW 12 G 18 10.00 Fair CLR 68 32 26% 29.67 0.0
03 14:55 W 9 G 16 10.00 Fair CLR 68 32 26% 29.67 0.0
03 14:35 NW 13 G 18 10.00 Fair CLR 66.2 30.2 26% 29.68 0.0
03 14:15 NW 13 G 18 10.00 Fair CLR 68 30.2 24% 29.69 0.0
Date Time (cdt) Wind (mph) Vis. (mi.) Weather Sky Cond. Air Dwpt Max. Min. Relative Humidity Wind Chill (°F) Heat Index (°F) altimeter (in) sea level (mb) 1 hr 3 hr 6 hr
6 hour
Temperature (ºF) Pressure Precipitation (in)